Airfield :
LOGIN :

Register | Disclaimer

   EN    FR    IT 

 










Legend :    VFR   Marginal VFR   IFR   Intensive IFR   Very Intensive IFR
Visi :
Ceiling :
>= 8 km
>= 3000ft
5 to 8 km
1000 to 3000 ft
1500m to 5 km
500 to 1000 ft
800 to 1500m
200 to 500 ft
< 800m
< 200 ft
Symbols :   Thunderstorms  Fog  Heavy snow  Heavy precipitations  Wind > 20 kt
SIGMETs :     Misc.  Thunderstorms  Icing  Turbulence  Mountain Waves  Volcanic Ashes







- Airport Elevation : 215 ft
- IATA code : ABZ
- Download approach charts


EGPD - Aberdeen / Dyce

CURRENT METAR :
  • 212250Z AUTO 25002KT 9999 NCD 08/07 Q1013 NOSIG

EXPIRED METARs :
  • 212220Z AUTO VRB02KT 9999 NCD 08/07 Q1013 NOSIG
  • 212150Z AUTO 25003KT 9999 FEW016 09/08 Q1013 NOSIG
  • 212120Z AUTO 25004KT 9999 NCD 10/09 Q1013 NOSIG
  • 212050Z AUTO VRB01KT 9999 NCD 10/09 Q1013
  • 212020Z AUTO 31006KT 9999 FEW046 10/09 Q1012 NOSIG
  • 211950Z AUTO 30007KT 270V350 9999 -RA BKN038/// BKN046/// //////TCU 10/09 Q1012 NOSIG

TAF AMD TAF EGPD
Valid from the 21 at 18:00 until the 22 at 18:00 UTC


211848Z 2118/2218 30006KT 9999 SCT012 BKN040
TEMPO 2118/2121 2000 RADZ BKN004
PROB30 2123/2207 1200 BR
BECMG 2208/2211 16012KT
No reported NOTAMs for that airfield.



MET'MAP, your aeronautical weather chart ! - Copyright ORBIFLY December 2007 - Disclaimer

ORBIFLY MET'MAP TEAM :

Programming & Development : Alexandra Zaïnal
Concept & Development : Baudouin d'Aumeries
Co-Development & Prog : Marc-Olivier Méhu
Technical & hardware support : Manuel Goepfert

Contact : metmap@orbifly.com




SOURCES & CREDITS :

   NOAA